createdAt,value
2022-09-01T00:00:15.188Z,102199.53
2022-09-01T00:02:45.253Z,102197.66
2022-09-01T00:05:13.329Z,102193.97
2022-09-01T00:07:41.401Z,102162.38
2022-09-01T00:10:10.680Z,102180.25
2022-09-01T00:12:43.474Z,102129.06
2022-09-01T00:15:13.178Z,102202.44
2022-09-01T00:17:42.276Z,102197.13
2022-09-01T00:20:11.550Z,102188.28
2022-09-01T00:22:39.867Z,102177.28
2022-09-01T00:25:09.093Z,102191.56
2022-09-01T00:27:37.040Z,102189.81
2022-09-01T00:30:07.875Z,102181.97
2022-09-01T00:32:35.805Z,102187.19
2022-09-01T00:35:04.090Z,102181.97
2022-09-01T00:37:32.197Z,102191.56
2022-09-01T00:40:00.182Z,102185.44
2022-09-01T00:42:28.222Z,102184.56
2022-09-01T00:44:56.205Z,102188.00
2022-09-01T00:47:25.815Z,102184.25
2022-09-01T00:49:54.841Z,102168.22
2022-09-01T00:52:29.657Z,102168.88
2022-09-01T00:55:04.220Z,102187.78
2022-09-01T00:57:32.296Z,102190.31
2022-09-01T01:00:02.983Z,102187.69
2022-09-01T01:02:32.590Z,102192.78
2022-09-01T01:05:00.925Z,102180.59
2022-09-01T01:07:30.033Z,102186.88
2022-09-01T01:09:58.643Z,102186.72
2022-09-01T01:12:28.103Z,102195.41
2022-09-01T01:14:57.116Z,102187.53
2022-09-01T01:17:25.572Z,102183.94
2022-09-01T01:20:14.917Z,102185.59
2022-09-01T01:23:05.915Z,102189.84
2022-09-01T01:25:38.561Z,102176.41
2022-09-01T01:28:09.148Z,102190.69
2022-09-01T01:30:39.699Z,102186.88
2022-09-01T01:33:08.134Z,102157.28
2022-09-01T01:35:38.010Z,102183.78
2022-09-01T01:38:08.440Z,102186.41
2022-09-01T01:40:38.348Z,102188.97
2022-09-01T01:43:07.275Z,102198.63
2022-09-01T01:45:35.813Z,102152.34
2022-09-01T01:48:06.334Z,102184.63
2022-09-01T01:50:38.062Z,102177.72
2022-09-01T01:53:11.350Z,102180.50
2022-09-01T01:55:43.871Z,102176.16
2022-09-01T01:58:12.722Z,102177.22
2022-09-01T02:00:44.744Z,102178.13
2022-09-01T02:03:17.411Z,102160.88
2022-09-01T02:05:47.100Z,102077.50
2022-09-01T02:08:18.612Z,102171.91
2022-09-01T02:10:50.367Z,102175.19
2022-09-01T02:13:21.163Z,102177.72
2022-09-01T02:15:53.813Z,102175.84
2022-09-01T02:18:24.857Z,102177.50
2022-09-01T02:20:53.860Z,102142.38
2022-09-01T02:23:24.522Z,102185.34
2022-09-01T02:26:15.641Z,102184.47
2022-09-01T02:28:49.814Z,102186.25
2022-09-01T02:31:21.169Z,102180.28
2022-09-01T02:33:49.193Z,102185.59
2022-09-01T02:36:19.755Z,102176.16
2022-09-01T02:38:53.429Z,102178.84
2022-09-01T02:41:29.277Z,102131.22
2022-09-01T02:44:02.552Z,102179.91
2022-09-01T02:46:30.842Z,102183.34
2022-09-01T02:49:00.737Z,102153.81
2022-09-01T02:51:29.148Z,102167.41
2022-09-01T02:53:57.847Z,102172.94
2022-09-01T02:56:27.845Z,102183.78
2022-09-01T02:58:56.526Z,102187.47
2022-09-01T03:01:28.742Z,102171.88
2022-09-01T03:03:58.920Z,102182.44
2022-09-01T03:06:28.225Z,102174.56
2022-09-01T03:09:00.380Z,102182.53
2022-09-01T03:11:32.552Z,102183.50
2022-09-01T03:14:00.678Z,102176.53
2022-09-01T03:16:30.618Z,102188.81
2022-09-01T03:18:59.336Z,102184.41
2022-09-01T03:21:27.835Z,102187.84
2022-09-01T03:23:55.902Z,102186.78
2022-09-01T03:26:24.272Z,102190.22
2022-09-01T03:28:53.721Z,102194.66
2022-09-01T03:31:22.349Z,102190.22
2022-09-01T03:33:51.120Z,102184.84
2022-09-01T03:36:20.281Z,102184.25
2022-09-01T03:38:51.235Z,102191.44
2022-09-01T03:41:22.760Z,102193.09
2022-09-01T03:43:51.323Z,102194.66
2022-09-01T03:46:21.903Z,102192.94
2022-09-01T03:48:52.102Z,102191.06
2022-09-01T03:51:22.981Z,102192.47
2022-09-01T03:53:55.641Z,102189.84
2022-09-01T03:56:27.426Z,102197.72
2022-09-01T03:58:57.165Z,102139.28
2022-09-01T04:01:28.698Z,102193.94
2022-09-01T04:03:57.311Z,102184.03
2022-09-01T04:06:26.123Z,102175.94
2022-09-01T04:08:57.843Z,102184.84
2022-09-01T04:11:26.590Z,102195.56
2022-09-01T04:13:54.461Z,102191.22
2022-09-01T04:16:48.930Z,102186.97
2022-09-01T04:19:26.459Z,102180.94
2022-09-01T04:21:56.722Z,102190.75
2022-09-01T04:24:28.150Z,102171.25
2022-09-01T04:26:58.922Z,102189.34
2022-09-01T04:29:28.325Z,102185.16
2022-09-01T04:31:57.336Z,102187.84
2022-09-01T04:34:28.257Z,102171.16
2022-09-01T04:36:56.922Z,102185.59
2022-09-01T04:39:25.321Z,102187.53
2022-09-01T04:41:54.372Z,102177.13
2022-09-01T04:44:22.330Z,102112.84
2022-09-01T04:46:50.775Z,102185.91
2022-09-01T04:49:22.503Z,102180.03
2022-09-01T04:51:54.232Z,102167.69
2022-09-01T04:54:23.998Z,102151.56
2022-09-01T04:56:52.948Z,102194.88
2022-09-01T04:59:23.206Z,102195.09
2022-09-01T05:01:55.265Z,102190.91
2022-09-01T05:04:27.506Z,102191.94
2022-09-01T05:07:01.391Z,102202.59
2022-09-01T05:09:30.414Z,102202.66
2022-09-01T05:12:12.909Z,102198.31
2022-09-01T05:14:48.635Z,102207.91
2022-09-01T05:17:19.207Z,102190.75
2022-09-01T05:19:51.190Z,102199.91
2022-09-01T05:22:22.465Z,102201.91
2022-09-01T05:24:51.607Z,102205.44
2022-09-01T05:27:24.027Z,102137.25
2022-09-01T05:29:51.925Z,102209.88
2022-09-01T05:32:21.949Z,102199.28
2022-09-01T05:34:50.649Z,102203.72
2022-09-01T05:37:21.089Z,102202.88
2022-09-01T05:39:48.955Z,102185.94
2022-09-01T05:42:17.705Z,102195.22
2022-09-01T05:44:45.597Z,102211.94
2022-09-01T05:47:20.616Z,102213.81
2022-09-01T05:49:49.995Z,102209.53
2022-09-01T05:52:17.981Z,102216.81
2022-09-01T05:54:48.096Z,102217.16
2022-09-01T05:57:33.901Z,102157.97
2022-09-01T06:00:03.416Z,102225.63
2022-09-01T06:02:33.925Z,102226.94
2022-09-01T06:05:01.914Z,102213.81
2022-09-01T06:07:29.914Z,102223.97
2022-09-01T06:10:00.389Z,102222.47
2022-09-01T06:12:29.090Z,102217.22
2022-09-01T06:14:58.361Z,102205.84
2022-09-01T06:17:29.262Z,102216.13
2022-09-01T06:19:58.006Z,102218.13
2022-09-01T06:22:28.027Z,102210.50
2022-09-01T06:25:01.892Z,102215.97
2022-09-01T06:27:31.895Z,102215.34
2022-09-01T06:30:00.069Z,102209.59
2022-09-01T06:32:28.856Z,102209.41
2022-09-01T06:34:58.226Z,102197.88
2022-09-01T06:37:26.950Z,102196.84
2022-09-01T06:39:55.048Z,102187.44
2022-09-01T06:42:23.611Z,102195.72
2022-09-01T06:44:52.961Z,102197.75
2022-09-01T06:47:21.286Z,102191.94
2022-09-01T06:49:51.806Z,102194.81
2022-09-01T06:52:23.824Z,102178.75
2022-09-01T06:54:54.065Z,102191.50
2022-09-01T07:00:18.878Z,102194.88
2022-09-01T07:03:09.488Z,102190.59
2022-09-01T07:08:28.829Z,102187.94
2022-09-01T07:16:51.760Z,102159.25
2022-09-01T07:19:21.672Z,102177.09
2022-09-01T07:24:37.774Z,102166.75
2022-09-01T07:27:07.958Z,102174.41
2022-09-01T07:29:36.265Z,102175.63
2022-09-01T07:34:56.098Z,102161.84
2022-09-01T07:43:09.587Z,102183.66
2022-09-01T07:45:47.278Z,102187.28
2022-09-01T07:51:35.683Z,102176.63
2022-09-01T07:53:55.970Z,102191.53
2022-09-01T07:56:25.406Z,102167.38
2022-09-01T07:58:53.904Z,102192.41
2022-09-01T08:01:23.836Z,102178.00
2022-09-01T08:03:55.605Z,102176.03
2022-09-01T08:06:27.305Z,102184.97
2022-09-01T08:08:58.442Z,102180.84
2022-09-01T08:14:18.135Z,102162.25
2022-09-01T08:16:53.718Z,102170.28
2022-09-01T08:19:23.183Z,102173.09
2022-09-01T08:21:51.216Z,102155.38
2022-09-01T08:24:19.253Z,102176.66
2022-09-01T08:26:47.236Z,102171.22
2022-09-01T08:29:15.333Z,102187.72
2022-09-01T08:31:43.231Z,102210.00
2022-09-01T08:34:12.903Z,102217.38
2022-09-01T08:36:42.404Z,102207.47
2022-09-01T08:39:10.376Z,102210.41
2022-09-01T08:41:47.331Z,102212.06
2022-09-01T08:44:23.477Z,102203.31
2022-09-01T08:46:59.347Z,102212.03
2022-09-01T08:49:28.281Z,102184.63
2022-09-01T08:52:04.603Z,102203.47
2022-09-01T08:54:43.600Z,102206.72
2022-09-01T08:57:18.078Z,102197.28
2022-09-01T08:59:46.031Z,102197.81
2022-09-01T09:02:28.789Z,102199.41
2022-09-01T09:05:15.569Z,102198.78
2022-09-01T09:08:09.535Z,102192.31
2022-09-01T09:10:47.997Z,102179.22
2022-09-01T09:13:22.929Z,102180.56
2022-09-01T09:16:07.308Z,102181.88
2022-09-01T09:18:54.615Z,102179.44
2022-09-01T09:21:29.697Z,102185.69
2022-09-01T09:24:04.921Z,102178.50
2022-09-01T09:26:48.596Z,102183.69
2022-09-01T09:29:17.001Z,102182.50
2022-09-01T09:31:49.986Z,102189.44
2022-09-01T09:34:30.478Z,102179.53
2022-09-01T09:36:58.438Z,102162.59
2022-09-01T09:39:29.520Z,102174.44
2022-09-01T09:42:09.799Z,102170.31
2022-09-01T09:44:44.707Z,102164.22
2022-09-01T09:47:43.760Z,102154.50
2022-09-01T09:50:16.818Z,102160.75
2022-09-01T09:52:48.011Z,102160.72
2022-09-01T09:55:29.504Z,102163.41
2022-09-01T09:58:00.642Z,102159.84
2022-09-01T10:00:30.978Z,102160.66
2022-09-01T10:03:14.304Z,102167.66
2022-09-01T10:05:44.245Z,102160.38
2022-09-01T10:08:16.669Z,102146.91
2022-09-01T10:10:56.493Z,102152.06
2022-09-01T10:13:31.452Z,102164.66
2022-09-01T10:16:03.852Z,102186.53
2022-09-01T10:18:38.771Z,102183.72
2022-09-01T10:21:11.257Z,102182.19
2022-09-01T10:23:41.984Z,102173.41
2022-09-01T10:26:16.049Z,102177.97
2022-09-01T10:28:53.537Z,102172.91
2022-09-01T10:31:23.179Z,102171.34
2022-09-01T10:33:52.596Z,102174.66
2022-09-01T10:36:24.651Z,102179.13
2022-09-01T10:38:59.952Z,102176.72
2022-09-01T10:42:00.136Z,102176.19
2022-09-01T10:44:34.345Z,102169.28
2022-09-01T10:47:13.498Z,102167.16
2022-09-01T10:50:02.312Z,102162.84
2022-09-01T10:52:56.876Z,102161.78
2022-09-01T10:55:28.627Z,102157.56
2022-09-01T10:59:30.823Z,102169.31
2022-09-01T11:01:34.976Z,102168.53
2022-09-01T11:03:56.704Z,102155.31
2022-09-01T11:07:17.148Z,102153.59
2022-09-01T11:10:31.338Z,102162.41
2022-09-01T11:13:31.570Z,102147.94
2022-09-01T11:16:47.833Z,102158.56
2022-09-01T11:19:37.677Z,102160.59
2022-09-01T11:22:16.419Z,102162.50
2022-09-01T11:25:00.376Z,102141.13
2022-09-01T11:28:24.576Z,102177.66
2022-09-01T11:30:58.304Z,102178.22
2022-09-01T11:33:35.647Z,102191.69
2022-09-01T11:36:06.244Z,102171.09
2022-09-01T11:38:45.125Z,102190.06
2022-09-01T11:41:26.737Z,102156.97
2022-09-01T11:43:59.205Z,102183.84
2022-09-01T11:46:30.734Z,102178.25
2022-09-01T11:49:01.257Z,102154.38
2022-09-01T11:51:30.297Z,102177.63
2022-09-01T11:54:01.772Z,102179.44
2022-09-01T11:56:30.521Z,102166.09
2022-09-01T11:58:58.562Z,102176.75
2022-09-01T12:01:36.175Z,102180.97
2022-09-01T12:04:23.289Z,102166.41
2022-09-01T12:06:58.187Z,102176.91
2022-09-01T12:09:37.538Z,102152.72
2022-09-01T12:12:07.589Z,102177.66
2022-09-01T12:15:01.912Z,102165.19
2022-09-01T12:17:25.926Z,102174.19
2022-09-01T12:19:54.470Z,102171.72
2022-09-01T12:22:24.028Z,102166.47
2022-09-01T12:24:54.454Z,102165.75
2022-09-01T12:27:24.279Z,102159.66
2022-09-01T12:29:53.036Z,102162.44
2022-09-01T12:32:21.417Z,102156.28
2022-09-01T12:35:09.226Z,102152.56
2022-09-01T12:37:39.391Z,102149.19
2022-09-01T12:40:22.143Z,102155.13
2022-09-01T12:42:52.374Z,102144.75
2022-09-01T12:45:39.170Z,102136.50
2022-09-01T12:48:07.637Z,102140.69
2022-09-01T12:50:56.114Z,102128.28
2022-09-01T12:53:30.859Z,102121.06
2022-09-01T12:56:05.533Z,102095.47
2022-09-01T12:58:34.817Z,102137.28
2022-09-01T13:01:05.759Z,102116.25
2022-09-01T13:03:37.437Z,102125.81
2022-09-01T13:06:08.021Z,102122.25
2022-09-01T13:08:37.757Z,102143.13
2022-09-01T13:11:11.027Z,102144.38
2022-09-01T13:13:39.712Z,102152.19
2022-09-01T13:16:13.075Z,102123.63
2022-09-01T13:21:34.752Z,102158.88
2022-09-01T13:24:04.405Z,102157.63
2022-09-01T13:26:32.502Z,102168.91
2022-09-01T13:29:01.312Z,102172.50
2022-09-01T13:31:31.807Z,102181.22
2022-09-01T13:34:22.021Z,102173.56
2022-09-01T13:36:52.664Z,102173.84
2022-09-01T13:39:22.839Z,102158.06
2022-09-01T13:41:51.167Z,102187.81
2022-09-01T13:44:19.754Z,102193.53
2022-09-01T13:50:05.035Z,102188.88
2022-09-01T13:52:25.894Z,102185.78
2022-09-01T13:54:54.108Z,102173.19
2022-09-01T13:57:22.022Z,102189.09
2022-09-01T13:59:50.035Z,102178.09
2022-09-01T14:02:18.320Z,102157.72
2022-09-01T14:04:47.023Z,102173.53
2022-09-01T14:07:16.166Z,102162.66
2022-09-01T14:09:45.655Z,102150.06
2022-09-01T14:12:13.780Z,102066.63
2022-09-01T14:17:29.861Z,102144.53
2022-09-01T14:19:58.435Z,102133.59
2022-09-01T14:22:26.364Z,102141.03
2022-09-01T14:24:55.709Z,102147.59
2022-09-01T14:27:23.743Z,102129.84
2022-09-01T14:29:56.945Z,102146.53
2022-09-01T14:32:27.152Z,102144.16
2022-09-01T14:34:56.248Z,102130.09
2022-09-01T14:37:25.066Z,102142.72
2022-09-01T14:39:54.249Z,102140.94
2022-09-01T14:42:25.815Z,102137.56
2022-09-01T14:44:54.086Z,102135.16
2022-09-01T14:47:24.978Z,102135.84
2022-09-01T14:49:53.372Z,102140.88
2022-09-01T14:52:22.244Z,102130.88
2022-09-01T14:54:51.031Z,102129.38
2022-09-01T14:57:37.798Z,102137.41
2022-09-01T15:00:12.266Z,102136.44
2022-09-01T15:02:41.141Z,102132.50
2022-09-01T15:05:10.202Z,102128.28
2022-09-01T15:07:38.531Z,102128.81
2022-09-01T15:10:09.372Z,102125.75
2022-09-01T15:12:39.903Z,102129.34
2022-09-01T15:15:11.002Z,102137.97
2022-09-01T15:17:40.359Z,102146.41
2022-09-01T15:20:27.709Z,102141.94
2022-09-01T15:22:56.558Z,102139.88
2022-09-01T15:25:24.990Z,102138.34
2022-09-01T15:27:53.106Z,102150.06
2022-09-01T15:30:23.020Z,102140.22
2022-09-01T15:32:54.266Z,102114.41
2022-09-01T15:35:23.770Z,102140.25
2022-09-01T15:40:21.099Z,102116.19
2022-09-01T15:42:49.247Z,102111.75
2022-09-01T15:45:20.029Z,102137.47
2022-09-01T15:47:49.951Z,102133.50
2022-09-01T15:50:22.116Z,102145.25
2022-09-01T15:52:53.096Z,102140.38
2022-09-01T15:55:24.448Z,102132.91
2022-09-01T15:57:55.413Z,102136.75
2022-09-01T16:00:25.020Z,102133.50
2022-09-01T16:02:56.696Z,102140.06
2022-09-01T16:05:26.032Z,102138.72
2022-09-01T16:10:24.473Z,102143.47
2022-09-01T16:12:52.645Z,102157.06
2022-09-01T16:15:23.546Z,102145.06
2022-09-01T16:18:05.203Z,102144.41
2022-09-01T16:20:39.590Z,102142.75
2022-09-01T16:23:17.278Z,102138.13
2022-09-01T16:25:46.025Z,102129.41
2022-09-01T16:28:25.367Z,102139.69
2022-09-01T16:30:58.148Z,102143.63
2022-09-01T16:33:27.840Z,102146.69
2022-09-01T16:36:17.226Z,102151.56
2022-09-01T16:38:49.758Z,102130.66
2022-09-01T16:41:39.727Z,102153.66
2022-09-01T16:44:19.173Z,102150.44
2022-09-01T16:46:54.465Z,102151.69
2022-09-01T16:49:30.496Z,102074.16
2022-09-01T16:52:08.575Z,102152.81
2022-09-01T16:54:48.094Z,102158.75
2022-09-01T16:57:26.058Z,102152.22
2022-09-01T16:59:56.127Z,102133.09
2022-09-01T17:02:42.291Z,102157.94
2022-09-01T17:05:20.202Z,102157.00
2022-09-01T17:07:54.246Z,102166.53
2022-09-01T17:10:41.284Z,102167.13
2022-09-01T17:13:20.420Z,102167.75
2022-09-01T17:15:55.349Z,102166.69
2022-09-01T17:18:33.549Z,102169.94
2022-09-01T17:21:11.118Z,102160.84
2022-09-01T17:23:43.741Z,102168.53
2022-09-01T17:26:19.904Z,102170.84
2022-09-01T17:28:55.330Z,102172.25
2022-09-01T17:31:50.488Z,102178.03
2022-09-01T17:34:38.871Z,102172.34
2022-09-01T17:37:20.787Z,102165.81
2022-09-01T17:39:59.834Z,102125.09
2022-09-01T17:42:33.829Z,102141.53
2022-09-01T17:45:13.124Z,102177.09
2022-09-01T17:47:54.911Z,102182.00
2022-09-01T17:50:33.613Z,102180.69
2022-09-01T17:53:10.600Z,102181.19
2022-09-01T17:55:47.186Z,102179.91
2022-09-01T17:58:31.542Z,102172.38
2022-09-01T18:01:03.121Z,102181.09
2022-09-01T18:03:46.323Z,102182.59
2022-09-01T18:06:24.040Z,102136.59
2022-09-01T18:08:57.685Z,102184.78
2022-09-01T18:11:34.939Z,102184.53
2022-09-01T18:14:08.463Z,102186.94
2022-09-01T18:16:45.070Z,102187.53
2022-09-01T18:19:19.101Z,102181.94
2022-09-01T18:21:53.169Z,102180.81
2022-09-01T18:24:27.760Z,102155.56
2022-09-01T18:26:55.839Z,102186.50
2022-09-01T18:29:28.568Z,102185.38
2022-09-01T18:32:25.081Z,102173.34
2022-09-01T18:35:08.230Z,102183.97
2022-09-01T18:37:45.525Z,102186.56
2022-09-01T18:40:22.636Z,102185.47
2022-09-01T18:42:58.809Z,102189.66
2022-09-01T18:45:36.691Z,102159.03
2022-09-01T18:48:13.415Z,102183.09
2022-09-01T18:50:48.945Z,102144.22
2022-09-01T18:53:27.595Z,102190.69
2022-09-01T18:56:02.260Z,102192.28
2022-09-01T18:58:44.538Z,102131.91
2022-09-01T19:01:15.763Z,102201.66
2022-09-01T19:03:49.800Z,102202.34
2022-09-01T19:06:31.348Z,102207.47
2022-09-01T19:09:09.377Z,102206.38
2022-09-01T19:11:54.713Z,102178.28
2022-09-01T19:14:30.323Z,102209.59
2022-09-01T19:17:33.197Z,102202.19
2022-09-01T19:20:05.048Z,102213.47
2022-09-01T19:22:41.986Z,102213.34
2022-09-01T19:25:29.000Z,102203.41
2022-09-01T19:28:03.637Z,102197.59
2022-09-01T19:30:35.506Z,102198.34
2022-09-01T19:33:06.336Z,102218.13
2022-09-01T19:35:36.644Z,102214.47
2022-09-01T19:38:08.197Z,102215.22
2022-09-01T19:40:40.587Z,102208.66
2022-09-01T19:43:15.779Z,102139.50
2022-09-01T19:45:56.885Z,102181.59
2022-09-01T19:48:33.085Z,102203.84
2022-09-01T19:51:06.385Z,102228.84
2022-09-01T19:53:41.788Z,102201.78
2022-09-01T19:56:13.986Z,102222.38
2022-09-01T19:58:52.814Z,102222.19
2022-09-01T20:01:31.084Z,102225.44
2022-09-01T20:04:02.912Z,102220.94
2022-09-01T20:06:35.113Z,102223.50
2022-09-01T20:09:09.297Z,102216.44
2022-09-01T20:11:47.903Z,102221.69
2022-09-01T20:14:34.856Z,102221.47
2022-09-01T20:17:05.545Z,102217.81
2022-09-01T20:19:40.835Z,102223.81
2022-09-01T20:22:21.627Z,102210.13
2022-09-01T20:24:50.071Z,102214.34
2022-09-01T20:27:33.187Z,102206.22
2022-09-01T20:30:06.065Z,102226.63
2022-09-01T20:32:40.404Z,102208.66
2022-09-01T20:35:14.209Z,102175.16
2022-09-01T20:37:46.480Z,102232.06
2022-09-01T20:40:17.704Z,102228.38
2022-09-01T20:43:04.210Z,102238.75
2022-09-01T20:45:33.683Z,102221.78
2022-09-01T20:48:04.827Z,102219.03
2022-09-01T20:50:42.775Z,102222.47
2022-09-01T20:53:35.241Z,102232.16
2022-09-01T20:56:10.632Z,102234.47
2022-09-01T20:58:44.908Z,102231.63
2022-09-01T21:01:20.092Z,102226.22
2022-09-01T21:03:59.820Z,102224.28
2022-09-01T21:06:48.620Z,102218.88
2022-09-01T21:09:22.625Z,102219.56
2022-09-01T21:11:59.704Z,102218.56
2022-09-01T21:14:41.170Z,102226.38
2022-09-01T21:17:22.049Z,102190.38
2022-09-01T21:19:59.378Z,102217.44
2022-09-01T21:22:28.952Z,102229.59
2022-09-01T21:24:57.387Z,102224.28
2022-09-01T21:27:28.025Z,102213.41
2022-09-01T21:29:59.937Z,102225.41
2022-09-01T21:32:30.800Z,102224.72
2022-09-01T21:34:59.840Z,102232.81
2022-09-01T21:37:29.971Z,102214.97
2022-09-01T21:39:58.270Z,102227.66
2022-09-01T21:42:28.583Z,102224.13
2022-09-01T21:44:58.537Z,102198.88
2022-09-01T21:47:28.077Z,102217.69
2022-09-01T21:49:57.400Z,102223.91
2022-09-01T21:52:25.494Z,102233.50
2022-09-01T21:54:53.705Z,102234.16
2022-09-01T21:57:23.102Z,102232.22
2022-09-01T21:59:51.596Z,102235.59
2022-09-01T22:02:20.518Z,102215.63
2022-09-01T22:04:48.921Z,102204.91
2022-09-01T22:07:18.876Z,102226.59
2022-09-01T22:09:47.476Z,102227.88
2022-09-01T22:12:15.931Z,102229.66
2022-09-01T22:14:43.924Z,102228.91
2022-09-01T22:17:11.950Z,102213.03
2022-09-01T22:19:39.928Z,102228.25
2022-09-01T22:22:08.940Z,102228.31
2022-09-01T22:24:38.350Z,102230.13
2022-09-01T22:27:06.293Z,102232.00
2022-09-01T22:29:34.398Z,102232.06
2022-09-01T22:32:02.402Z,102223.38
2022-09-01T22:34:30.273Z,102221.66
2022-09-01T22:36:58.269Z,102216.47
2022-09-01T22:39:26.228Z,102222.63
2022-09-01T22:41:55.573Z,102158.63
2022-09-01T22:44:23.831Z,102202.84
2022-09-01T22:46:51.908Z,102193.31
2022-09-01T22:49:19.896Z,102218.56
2022-09-01T22:51:47.902Z,102219.25
2022-09-01T22:54:15.949Z,102231.38
2022-09-01T22:56:45.278Z,102224.34
2022-09-01T22:59:16.394Z,102225.25
2022-09-01T23:01:47.646Z,102205.59
2022-09-01T23:04:17.540Z,102222.09
2022-09-01T23:06:47.641Z,102214.31
2022-09-01T23:09:16.821Z,102217.09
2022-09-01T23:11:45.764Z,102213.78
2022-09-01T23:14:15.596Z,102220.97
2022-09-01T23:16:43.597Z,102219.41
2022-09-01T23:19:12.156Z,102228.25
2022-09-01T23:21:40.573Z,102207.47
2022-09-01T23:24:08.757Z,102226.75
2022-09-01T23:26:37.380Z,102176.75
2022-09-01T23:29:06.158Z,102193.84
2022-09-01T23:31:38.207Z,102213.91
2022-09-01T23:34:08.230Z,102215.72
2022-09-01T23:36:37.058Z,102213.16
2022-09-01T23:39:05.310Z,102211.44
2022-09-01T23:41:35.537Z,102212.41
2022-09-01T23:44:06.067Z,102216.84
2022-09-01T23:46:38.281Z,102170.81
2022-09-01T23:49:06.402Z,102220.28
2022-09-01T23:51:34.592Z,102213.78
2022-09-01T23:54:03.047Z,102219.25
2022-09-01T23:56:31.586Z,102223.53
2022-09-01T23:59:00.574Z,102225.09
